Latest Coastal Weather Observations for Hamilton Island

IDQ60701

Issued at 5:51 am EST Friday 24 March 2017 (issued every 10 minutes, with the page automatically refreshed every 10 minutes)

About coastal observations | Map of coastal stations | Coastal observations for QLD | Marine services | Other Formats
Station Details ID: 033106 Name: HAMILTON ISLAND AIRPORT Lat: -20.37 Lon: 148.95 Height: 58.66 m
Data from the previous 72 hours. | See also: Recent months at Hamilton Island
Date/Time
EST
Temp
°C
Wind Pressure Rain since
9am
mm
Weather Cloud Vis
km
Sea
Height
m
Swell
Dir  Spd
kts
Gust
kts
hPa Trend Height
m
Period
s
Dir
24/05:46am 25.8 SSE 13 17 1009.9 - 117.8 - Partly cloudy 10 - - - -
24/05:30am 25.8 SE 12 15 1009.9 - 117.8 - Partly cloudy 2 - - - -
24/05:24am 25.9 SE 12 15 1009.8 - 117.8 - Partly cloudy 6 - - - -
24/05:00am 25.6 S 11 15 1009.4 - 116.8 - Partly cloudy 10 - - - -
24/04:30am 25.3 S 11 15 1009.5 - 116.8 - Partly cloudy 10 - - - -
24/04:00am 25.3 S 12 18 1009.5 - 116.8 - Partly cloudy 10 - - - -
24/03:33am 25.1 S 12 16 1009.6 - 116.8 - Partly cloudy 10 - - - -
24/03:30am 25.1 S 12 16 1009.6 - 116.8 - Partly cloudy 10 - - - -
24/03:13am 25.3 S 12 15 1009.6 - 116.6 - Partly cloudy 6 - - - -
24/03:00am 25.4 S 12 16 1009.2 - 116.4 - Mostly cloudy 10 - - - -
24/02:30am 25.4 S 11 15 1009.7 - 116.4 - Partly cloudy 10 - - - -
24/02:00am 25.8 SSE 8 11 1010.2 - 116.4 - Partly cloudy 10 - - - -
24/01:30am 25.2 SSW 8 10 1010.4 - 116.4 - - 10 - - - -
24/01:00am 24.9 SW 9 11 1011.0 - 116.4 - Partly cloudy 10 - - - -
24/12:30am 25.0 SSE 6 8 1011.4 - 116.4 - Partly cloudy 10 - - - -
24/12:00am 25.4 ESE 7 11 1011.7 - 116.4 - Cloudy 10 - - - -
 
Date/Time
EST
Temp
°C
Wind Pressure Rain since
9am
mm
Weather Cloud Vis
km
Sea
Height
m
Swell
Dir  Spd
kts
Gust
kts
hPa Trend Height
m
Period
s
Dir
23/11:30pm 25.4 E 9 13 1012.2 - 116.2 - Cloudy 10 - - - -
23/11:09pm 24.5 E 11 14 1012.4 - 116.0 - Partly cloudy 10 - - - -
23/11:00pm 24.2 E 14 18 1012.4 - 116.0 - Partly cloudy 7 - - - -
23/10:47pm 23.6 E 16 22 1012.5 - 115.0 - Partly cloudy 6 - - - -
23/10:43pm 23.6 E 16 22 1012.5 - 114.6 - Partly cloudy 7 - - - -
23/10:41pm 23.6 E 15 21 1012.5 - 114.2 - Partly cloudy 7 - - - -
23/10:30pm 24.1 E 14 19 1012.8 - 112.8 - Partly cloudy 5 - - - -
23/10:03pm 24.0 ENE 16 27 1012.8 - 107.2 - Partly cloudy 2 - - - -
23/10:00pm 23.9 ENE 16 29 1012.8 - 106.8 - Partly cloudy 3 - - - -
23/09:55pm 24.3 E 18 29 1012.8 - 102.0 - Partly cloudy 6 - - - -
23/09:53pm 24.9 E 15 29 1012.7 - 98.6 - Partly cloudy 10 - - - -
23/09:30pm 25.4 NW 3 3 1012.7 - 97.2 - Cloudy 10 - - - -
23/09:00pm 25.4 NNW 3 5 1012.2 - 97.2 - Cloudy 10 - - - -
23/08:30pm 25.3 NNW 4 6 1012.2 - 97.2 - Partly cloudy 10 - - - -
23/08:00pm 25.3 NNE 5 7 1011.9 - 97.2 - Partly cloudy 10 - - - -
23/07:42pm 25.5 NNE 7 12 1011.7 - 97.2 - Partly cloudy 10 - - - -
23/07:30pm 25.4 NNE 9 14 1011.5 - 97.2 - Partly cloudy 10 - - - -
23/07:00pm 25.4 NNE 9 13 1011.3 - 97.2 - Partly cloudy 10 - - - -
23/06:30pm 25.5 NNE 13 19 1011.0 - 97.0 - Partly cloudy 10 - - - -
23/06:00pm 25.5 ENE 10 14 1010.4 - 96.2 - Cloudy 10 - - - -
23/05:41pm 25.6 ENE 12 15 1010.3 - 95.4 - Partly cloudy 7 - - - -
23/05:30pm 25.5 E 12 15 1010.1 - 94.6 - Partly cloudy 10 - - - -
23/05:11pm 25.1 E 12 15 1010.0 - 93.8 - Partly cloudy 9 - - - -
23/05:00pm 25.2 E 15 19 1010.2 - 93.4 - Partly cloudy 6 - - - -
23/04:49pm 25.4 E 11 14 1010.2 - 92.4 - Partly cloudy 6 - - - -
23/04:39pm 25.2 ENE 10 12 1010.2 - 91.6 - Partly cloudy 10 - - - -
23/04:30pm 25.1 E 12 15 1010.2 - 91.0 - Partly cloudy 7 - - - -
23/04:23pm 25.1 E 15 19 1010.1 - 90.8 - Partly cloudy 6 - - - -
23/04:15pm 25.2 E 17 19 1010.0 - 90.4 - Partly cloudy 9 - - - -
23/04:00pm 25.0 SE 15 17 1010.1 - 89.8 - Partly cloudy 5 - - - -
23/03:51pm 24.8 SE 12 14 1010.2 - 89.0 - Partly cloudy 6 - - - -
23/03:30pm 24.7 SE 15 18 1010.3 - 87.0 - Partly cloudy 5 - - - -
23/03:00pm 24.4 SSE 14 19 1009.9 - 81.2 - Cloudy 4 - - - -
23/02:43pm 24.6 SE 13 16 1010.3 - 77.8 - Partly cloudy 3 - - - -
23/02:37pm 24.3 SE 13 19 1010.1 - 77.4 - Partly cloudy 2 - - - -
23/02:30pm 24.3 ESE 15 19 1010.3 - 75.2 - Partly cloudy 2 - - - -
23/02:00pm 23.9 SSE 12 16 1010.2 - 66.2 - Partly cloudy 6 - - - -
23/01:56pm 24.0 SSE 11 15 1010.1 - 65.6 - Partly cloudy 5 - - - -
23/01:54pm 24.0 SSE 11 14 1010.0 - 65.6 - Partly cloudy 4 - - - -
23/01:30pm 24.7 SE 17 22 1010.0 - 55.0 - Partly cloudy 3 - - - -
23/01:27pm 24.9 SE 15 21 1010.2 - 52.6 - Partly cloudy 3 - - - -
23/01:00pm 24.6 WSW 5 8 1010.7 - 17.4 - Partly cloudy 0.6 - - - -
23/12:39pm 25.9 S 6 8 1010.7 - 1.6 - Cloudy 6 - - - -
23/12:30pm 26.3 SSW 7 9 1010.6 - 1.6 - Cloudy 10 - - - -
23/12:00pm 26.2 SW 6 8 1010.6 - 1.4 - Cloudy 10 - - - -
23/11:34am 25.8 WSW 5 7 1011.5 - 1.0 - Partly cloudy 10 - - - -
23/11:30am 26.0 WSW 4 7 1011.5 - 1.0 - Partly cloudy 10 - - - -
23/11:00am 25.6 NW 3 4 1011.9 - 0.8 - Partly cloudy 10 - - - -
23/10:30am 25.2 NNW 8 10 1012.2 - 0.6 - Partly cloudy 10 - - - -
23/10:00am 25.2 W 6 8 1012.1 - 0.4 - Partly cloudy 10 - - - -
23/09:43am 25.1 W 8 11 1012.3 - 0.2 - Partly cloudy 10 - - - -
23/09:30am 25.2 WNW 8 12 1012.2 - 0.0 - Partly cloudy 10 - - - -
23/09:00am 25.6 S 5 8 1011.8 - 62.0 - Cloudy 10 - - - -
23/08:30am 25.5 SSE 12 16 1012.0 - 62.0 - Partly cloudy 10 - - - -
23/08:00am 25.7 SSE 10 12 1011.9 - 62.0 - Partly cloudy 10 - - - -
23/07:53am 25.4 S 10 13 1011.7 - 62.0 - Partly cloudy 10 - - - -
23/07:30am 26.0 E 9 11 1011.3 - 62.0 - Partly cloudy 10 - - - -
23/07:19am 25.6 ENE 7 10 1011.1 - 61.8 - Partly cloudy 10 - - - -
23/07:00am 25.0 NE 5 10 1010.9 - 58.2 - Partly cloudy 10 - - - -
23/06:47am 24.9 W 3 5 1010.9 - 56.4 - Partly cloudy 7 - - - -
23/06:42am 24.9 NNW 2 4 1010.8 - 56.2 - Partly cloudy 3 - - - -
23/06:30am 24.8 NNE 10 14 1010.9 - 54.4 - Partly cloudy 1 - - - -
23/06:14am 24.9 N 6 8 1010.8 - 45.0 - Partly cloudy 6 - - - -
23/06:00am 24.9 NNW 4 7 1009.7 - 43.4 - Cloudy 10 - - - -
23/05:36am 24.7 W 6 8 1010.3 - 38.2 - Partly cloudy 10 - - - -
23/05:32am 24.7 WNW 7 8 1010.1 - 37.6 - Partly cloudy 10 - - - -
23/05:30am 24.7 WNW 7 10 1010.1 - 37.2 - Partly cloudy 10 - - - -
23/05:15am 24.7 NNW 10 15 1009.7 - 36.6 - Partly cloudy 4 - - - -
23/05:00am 25.0 N 12 23 1009.7 - 35.8 - Partly cloudy 2 - - - -
23/04:30am 24.6 NE 13 20 1009.6 - 20.6 - Partly cloudy 2 - - - -
23/04:25am 24.7 NE 16 24 1009.6 - 14.4 - Partly cloudy 5 - - - -
23/04:20am 24.8 ENE 18 24 1009.4 - 11.2 - Partly cloudy 10 - - - -
23/04:12am 25.4 NNE 4 6 1009.5 - 10.6 - Partly cloudy 10 - - - -
23/04:00am 25.5 ENE 6 7 1009.2 - 10.6 - Partly cloudy 10 - - - -
23/03:47am 25.1 NNE 9 12 1009.2 - 9.6 - Partly cloudy 10 - - - -
23/03:30am 26.4 NNE 7 14 1009.3 - 7.2 - Partly cloudy 5 - - - -
23/03:29am 26.5 NNE 7 10 1009.3 - 6.8 - Partly cloudy 6 - - - -
23/03:00am 26.3 NE 4 8 1008.9 - 6.8 - - 10 - - - -
23/02:30am 26.5 NE 6 8 1009.6 - 6.8 - Partly cloudy 10 - - - -
23/02:00am 26.6 NE 7 10 1009.5 - 6.8 - Partly cloudy 10 - - - -
23/01:30am 26.7 NE 8 12 1009.8 - 6.8 - - 10 - - - -
23/01:00am 26.7 NE 8 11 1010.1 - 6.8 - Partly cloudy 10 - - - -
23/12:30am 26.7 NE 8 11 1010.4 - 6.8 - Partly cloudy 10 - - - -
23/12:00am 26.5 ENE 7 10 1010.4 - 6.8 - Mostly clear 10 - - - -
 
Date/Time
EST
Temp
°C
Wind Pressure Rain since
9am
mm
Weather Cloud Vis
km
Sea
Height
m
Swell
Dir  Spd
kts
Gust
kts
hPa Trend Height
m
Period
s
Dir
22/11:30pm 26.4 ENE 8 12 1010.9 - 6.8 - Partly cloudy 10 - - - -
22/11:00pm 26.3 NE 7 9 1011.1 - 6.8 - Partly cloudy 10 - - - -
22/10:30pm 25.9 ENE 8 11 1011.3 - 6.8 - Partly cloudy 10 - - - -
22/10:00pm 26.7 ENE 7 13 1011.7 - 6.8 - Partly cloudy 10 - - - -
22/09:30pm 26.8 ENE 7 11 1011.7 - 6.8 - Partly cloudy 10 - - - -
22/09:00pm 26.8 ENE 9 11 1010.8 - 6.8 - Mostly clear 10 - - - -
22/08:45pm 27.0 NE 8 11 1010.9 - 6.8 - Partly cloudy 10 - - - -
22/08:30pm 27.0 ENE 8 12 1010.8 - 6.8 - Partly cloudy 10 - - - -
22/08:20pm 27.1 ENE 11 14 1010.5 - 6.8 - Partly cloudy 10 - - - -
22/08:00pm 27.2 E 11 13 1010.0 - 6.8 - Partly cloudy 10 - - - -
22/07:30pm 27.0 E 10 15 1009.8 - 6.8 - Partly cloudy 10 - - - -
22/07:21pm 26.8 E 11 17 1009.7 - 6.8 - Partly cloudy 10 - - - -
22/07:00pm 27.0 ENE 12 14 1009.2 - 6.8 - Partly cloudy 10 - - - -
22/06:35pm 26.6 ENE 9 13 1009.3 - 6.8 - Partly cloudy 10 - - - -
22/06:30pm 26.4 ENE 7 10 1009.3 - 6.8 - Partly cloudy 10 - - - -
22/06:25pm 26.3 ENE 5 8 1009.4 - 6.8 - Partly cloudy 10 - - - -
22/06:21pm 26.0 E 3 6 1009.4 - 6.8 - Partly cloudy 10 - - - -
22/06:01pm 26.6 ENE 12 15 1009.1 - 5.0 - Partly cloudy 6 - - - -
22/06:00pm 26.7 ENE 12 15 1008.8 - 5.0 - Cloudy 7 - - - -
22/05:30pm 27.3 E 13 15 1008.8 - 4.4 - Partly cloudy 10 - - - -
22/05:00pm 27.6 E 13 15 1008.6 - 4.4 - Partly cloudy 10 - - - -
22/04:30pm 27.6 E 13 16 1008.5 - 4.4 - Partly cloudy 10 - - - -
22/04:00pm 27.5 E 13 15 1008.3 - 4.2 - Partly cloudy 10 - - - -
22/03:30pm 26.7 E 11 14 1008.7 - 4.2 - Partly cloudy 10 - - - -
22/03:23pm 26.6 E 12 14 1008.7 - 4.2 - Partly cloudy 10 - - - -
22/03:00pm 26.5 ENE 14 18 1008.2 - 2.2 - Cloudy 6 - - - -
22/02:59pm 26.7 ENE 14 18 1008.6 - 2.0 - Partly cloudy 6 - - - -
22/02:56pm 26.9 ENE 13 18 1008.6 - 0.8 - Partly cloudy 6 - - - -
22/02:30pm 28.1 E 12 13 1008.6 - 0.4 - Partly cloudy 10 - - - -
22/02:20pm 28.1 E 13 15 1008.7 - 0.4 - Partly cloudy 10 - - - -
22/02:10pm 27.9 E 13 17 1008.8 - 0.4 - Partly cloudy 10 - - - -
22/02:00pm 27.8 E 13 15 1008.9 - 0.4 - Partly cloudy 10 - - - -
22/01:57pm 27.8 E 13 14 1008.9 - 0.4 - Partly cloudy 10 - - - -
22/01:30pm 28.2 E 9 12 1009.1 - 0.4 - Partly cloudy 10 - - - -
22/01:10pm 27.7 SE 6 8 1009.5 - 0.4 - Partly cloudy 10 - - - -
22/01:00pm 27.5 SE 7 8 1009.7 - 0.0 - Partly cloudy 6 - - - -
22/12:59pm 27.5 SE 7 8 1009.7 - 0.0 - Partly cloudy 6 - - - -
22/12:30pm 27.6 SSE 11 12 1010.2 - 0.0 - Partly cloudy 10 - - - -
22/12:04pm 29.5 SE 9 11 1010.7 - 0.0 - Partly cloudy 10 - - - -
22/12:00pm 29.3 ESE 8 11 1010.3 - 0.0 - Cloudy 10 - - - -
22/11:30am 28.0 SE 8 10 1011.1 - 0.0 - Partly cloudy 10 - - - -
22/11:25am 27.9 SSE 9 10 1011.1 - 0.0 - Partly cloudy 10 - - - -
22/11:00am 29.5 SE 10 11 1011.4 - 0.0 - - 10 - - - -
22/10:30am 28.9 SE 11 13 1011.5 - 0.0 - - 10 - - - -
22/10:00am 28.1 SSE 12 14 1011.5 - 0.0 - Partly cloudy 10 - - - -
22/09:37am 28.1 SSE 11 13 1011.7 - 0.0 - Partly cloudy 10 - - - -
22/09:30am 28.2 SSE 10 12 1011.7 - 0.0 - Partly cloudy 10 - - - -
22/09:00am 27.5 SSE 10 12 1011.3 - 4.0 - Mostly cloudy 10 - - - -
22/08:30am 27.8 SSE 10 12 1011.5 - 4.0 - Partly cloudy 10 - - - -
22/08:27am 27.7 SSE 9 12 1011.4 - 4.0 - Partly cloudy 10 - - - -
22/08:00am 26.6 S 7 9 1011.2 - 4.0 - - 10 - - - -
22/07:43am 26.4 S 7 9 1010.8 - 4.0 - Partly cloudy 10 - - - -
22/07:30am 26.2 S 8 9 1010.7 - 4.0 - Partly cloudy 10 - - - -
22/07:02am 26.4 SSE 6 9 1010.3 - 4.0 - Partly cloudy 10 - - - -
22/07:00am 26.4 SSE 6 8 1010.3 - 4.0 - Partly cloudy 10 - - - -
22/06:30am 25.9 SSE 4 5 1010.2 - 4.0 - - 10 - - - -
22/06:00am 26.0 WSW 3 4 1009.7 - 4.0 - - 10 - - - -
22/05:30am 25.8 S 5 6 1009.8 - 4.0 - - 10 - - - -
22/05:00am 25.8 S 4 6 1009.8 - 4.0 - Partly cloudy 10 - - - -
22/04:30am 25.9 SSW 5 6 1009.6 - 4.0 - Partly cloudy 10 - - - -
22/04:00am 25.6 SSW 4 6 1009.4 - 4.0 - Partly cloudy 10 - - - -
22/03:30am 25.4 SW 5 6 1009.3 - 4.0 - - 10 - - - -
22/03:00am 25.3 WSW 4 6 1009.0 - 4.0 - Partly cloudy 10 - - - -
22/02:30am 25.3 SW 7 9 1009.6 - 4.0 - - 10 - - - -
22/02:00am 24.9 SSW 5 6 1009.8 - 4.0 - Partly cloudy 10 - - - -
22/01:30am 24.8 SSW 5 6 1010.0 - 4.0 - Partly cloudy 10 - - - -
22/01:00am 24.7 NNW 5 7 1010.1 - 4.0 - Partly cloudy 10 - - - -
22/12:30am 24.5 ENE 5 8 1010.5 - 4.0 - Partly cloudy 10 - - - -
22/12:10am 24.4 N 1 4 1010.6 - 3.8 - Partly cloudy 10 - - - -
22/12:00am 24.5 N 5 7 1010.5 - 3.4 - Cloudy 6 - - - -
 
Date/Time
EST
Temp
°C
Wind Pressure Rain since
9am
mm
Weather Cloud Vis
km
Sea
Height
m
Swell
Dir  Spd
kts
Gust
kts
hPa Trend Height
m
Period
s
Dir
21/11:49pm 24.7 N 9 12 1011.2 - 2.0 - Partly cloudy 9 - - - -
21/11:33pm 25.4 N 15 17 1011.2 - 0.4 - Partly cloudy 6 - - - -
21/11:30pm 25.8 NW 9 14 1011.2 - 0.4 - Partly cloudy 10 - - - -
21/11:10pm 26.1 N 3 5 1011.3 - 0.2 - Partly cloudy 10 - - - -
21/11:00pm 26.0 N 4 6 1011.4 - 0.2 - Partly cloudy 10 - - - -
21/10:30pm 25.9 NNE 7 10 1011.4 - 0.2 - Partly cloudy 10 - - - -
21/10:00pm 26.1 N 5 7 1011.6 - 0.2 - Partly cloudy 10 - - - -
21/09:30pm 26.1 ENE 5 8 1011.6 - 0.2 - Partly cloudy 10 - - - -
21/09:00pm 26.3 NNE 1 3 1010.7 - 0.2 - Mostly cloudy 10 - - - -
21/08:30pm 26.2 NNE 1 4 1010.6 - 0.2 - - 10 - - - -
21/08:00pm 26.3 NNE 5 7 1010.6 - 0.2 - - 10 - - - -
21/07:30pm 26.5 NE 6 8 1010.7 - 0.2 - - 10 - - - -
21/07:00pm 26.5 E 11 13 1010.3 - 0.2 - - 10 - - - -
21/06:30pm 26.8 E 8 11 1010.0 - 0.2 - - 10 - - - -
21/06:00pm 26.7 E 13 16 1009.1 - 0.2 - Partly cloudy 10 - - - -
21/05:30pm 27.2 E 10 12 1009.4 - 0.2 - Partly cloudy 10 - - - -
21/05:00pm 27.5 E 9 11 1009.3 - 0.2 - Partly cloudy 10 - - - -
21/04:30pm 28.1 E 8 11 1009.0 - 0.2 - Partly cloudy 10 - - - -
21/04:00pm 28.3 E 8 11 1008.8 - 0.2 - - 10 - - - -
21/03:30pm 29.1 ENE 6 8 1008.6 - 0.2 - Partly cloudy 10 - - - -
21/03:00pm 27.9 E 6 8 1008.5 - 0.2 - Mostly clear 10 - - - -
21/02:30pm 28.1 E 7 8 1009.2 - 0.2 - - 10 - - - -
21/02:05pm 28.4 E 8 11 1009.4 - 0.2 - Partly cloudy 10 - - - -
21/02:00pm 28.1 E 9 11 1009.5 - 0.2 - Partly cloudy 10 - - - -
21/01:30pm 28.5 E 8 10 1009.7 - 0.2 - Partly cloudy 10 - - - -
21/01:00pm 28.4 E 8 10 1010.3 - 0.2 - Partly cloudy 10 - - - -
21/12:30pm 28.1 E 10 13 1010.8 - 0.2 - Partly cloudy 10 - - - -
21/12:00pm 28.0 E 10 12 1010.8 - 0.2 - Mostly clear 10 - - - -
21/11:30am 28.4 E 12 14 1011.6 - 0.2 - - 10 - - - -
21/11:00am 27.5 E 13 15 1011.7 - 0.2 - Partly cloudy 10 - - - -
21/10:55am 27.7 E 13 15 1011.8 - 0.2 - Partly cloudy 10 - - - -
21/10:32am 27.2 E 14 16 1012.0 - 0.0 - Partly cloudy 10 - - - -
21/10:30am 27.1 E 14 15 1012.0 - 0.0 - Partly cloudy 10 - - - -
21/10:00am 27.2 E 13 16 1012.2 - 0.0 - Partly cloudy 10 - - - -
21/09:35am 26.9 ESE 13 16 1012.2 - 0.0 - Partly cloudy 10 - - - -
21/09:30am 27.0 ESE 13 15 1012.2 - 0.0 - Partly cloudy 10 - - - -
21/09:02am 26.5 SE 14 17 1012.2 - 0.0 - Partly cloudy 10 - - - -
21/09:00am 26.5 SE 15 17 1011.8 - 21.2 - Cloudy 10 - - - -
21/08:45am 26.3 SE 15 17 1012.1 - 21.2 - Partly cloudy 6 - - - -
21/08:30am 26.9 SE 14 19 1012.1 - 19.8 - Partly cloudy 10 - - - -
21/08:06am 27.1 SE 10 12 1011.9 - 19.8 - Partly cloudy 10 - - - -
21/08:00am 26.6 ESE 10 12 1011.9 - 19.8 - Partly cloudy 10 - - - -
21/07:30am 26.3 ESE 10 12 1011.5 - 19.8 - Partly cloudy 10 - - - -
21/07:03am 26.2 SE 9 12 1011.0 - 19.8 - Partly cloudy 10 - - - -
21/07:00am 26.2 SE 10 12 1011.0 - 19.8 - Partly cloudy 10 - - - -
21/06:30am 25.7 SE 14 16 1010.4 - 19.8 - Partly cloudy 10 - - - -
21/06:00am 25.6 SE 13 16 1009.7 - 19.8 - Cloudy 10 - - - -

Other Formats:

Comma delimited format used in spreadsheet applications
http://www.bom.gov.au/fwo/IDQ60701/IDQ60701.94368.axf

JavaScript Object Notation format (JSON) in row-major order
http://www.bom.gov.au/fwo/IDQ60701/IDQ60701.94368.json